x

Portland 12 Nm Southeast Of Portland,me (44007) Wave Buoy

12:50pm - Mon 25th Sep 2017 All times are EDT. -4 hours from GMT.

  • Sig Wave height 3.3ft
  • Swell Direction
  • Peak Period 11s
  • Average Period 8s
  • Wind
    2mph, 4mph gusts
  • Sea Temp 65°f
  • Air Temp 69°f
  • Sea Pressure 1018.8mb
  • Portland 12 Nm Southeast Of Portland,me
  • Portland 12 Nm Southeast Of Portland,me

More Historic Weather Station data

Upgrade to MSW Pro to gain access to the past 30 days of data for over 8000 Wavebouys and Weather Stations around the globe.

Join

Comparision Forecast

View Surf forecast
   
Mon 09/25 12:50pm 3.5ft 11s 8s 2 4 mph 1018.8mb 65f 69f
11:50am 3ft 12s 8s 2 2 mph 1018.9mb 63f 67f
10:50am 3ft 11s 8s 4 7 mph 1019.1mb 63f 66f
9:50am 3ft 13s 8s  -  2 mph 1019.3mb 62f 67f
8:50am 3ft 11s 8s 2 4 mph 1018.7mb 62f 64f
7:50am 3ft 10s 8s 2 4 mph 1018.4mb 62f 64f
6:50am 2.5ft 11s 7s 2 4 mph 1017.9mb 62f 63f
5:50am 3.5ft 13s 8s 4 4 mph 1017.2mb 62f 63f
4:50am 3ft 13s 8s 4 4 mph 1016.8mb 62f 62f
3:50am 2.5ft 13s 7s 4 4 mph 1016.4mb 62f 62f
2:50am 2.5ft 11s 8s 2 2 mph 1016.4mb 62f 63f
1:50am 2.5ft 15s 8s 7 7 mph 1016.6mb 62f 63f
12:50am 3ft 11s 8s 7 7 mph 1016.6mb 61f 63f
Sun 09/24 11:50pm 3ft 10s 8s 4 9 mph 1016.9mb 61f 63f
10:50pm 3ft 11s 8s 4 7 mph 1016.9mb 61f 64f
9:50pm 3.5ft 11s 8s 4 7 mph 1016.7mb 62f 64f
8:50pm 3.5ft 11s 8s 7 9 mph 1016.5mb 62f 64f
7:50pm 3ft 11s 8s 2 4 mph 1016.5mb 63f 64f
6:50pm 3ft 12s 8s 7 7 mph 1015.9mb 63f 64f
5:50pm 3ft 12s 8s 7 9 mph 1015.7mb 63f 65f
4:50pm 3ft 11s 7s 9 9 mph 1015.5mb 63f 66f
3:50pm 3ft 12s 7s 9 9 mph 1015.7mb 63f 67f
2:50pm 3ft 12s 7s 9 9 mph 1016.1mb 63f 67f
1:50pm 3ft 7s 7s 7 9 mph 1016.2mb 64f 69f
12:50pm 3ft 8s 7s 4 4 mph 1016.7mb 63f 69f
11:50am 3ft 8s 7s 2 2 mph 1017.3mb 62f 68f
10:50am 3ft 7s 7s 2 4 mph 1017.7mb 61f 66f
9:50am 3ft 10s 7s 4 7 mph 1017.6mb 60f 64f
8:50am 3.5ft 10s 7s  -  2 mph 1017.8mb 60f 66f
7:50am 3ft 12s 7s 2 2 mph 1017.7mb 60f 64f
6:50am 3.5ft 10s 7s 2 2 mph 1017.5mb 60f 62f
5:50am 3.5ft 11s 7s  -  2 mph 1016.9mb 60f 62f
4:50am 3ft 13s 7s  -  2 mph 1016.6mb 60f 62f
3:50am 3.5ft 13s 7s 4 4 mph 1016.2mb 60f 61f
2:50am 3ft 14s 7s 2 2 mph 1015.9mb 60f 61f
1:50am 3.5ft 7s 7s 4 4 mph 1016.1mb 60f 61f
12:50am 3.5ft 8s 7s 7 7 mph 1016.1mb 59f 62f
Sat 09/23 11:50pm 3.5ft 7s 7s 7 9 mph 1016.3mb 59f 62f
10:50pm 3.5ft 8s 7s 7 7 mph 1016.4mb 59f 61f
9:50pm 4ft 8s 7s 7 7 mph 1016.5mb 60f 61f
8:50pm 4ft 8s 7s 7 9 mph 1016.3mb 60f 62f
7:50pm 4ft 10s 7s 7 7 mph 1016.4mb 61f 62f
6:50pm 4ft 10s 7s 7 9 mph 1016mb 62f 62f
5:50pm 4ft 10s 7s 4 7 mph 1015.8mb 62f 63f
4:50pm 4ft 9s 6s 4 7 mph 1015.8mb 62f 64f
3:50pm 3.5ft 8s 6s 9 9 mph 1015.6mb 63f 64f
2:50pm 4.5ft 8s 6s 7 7 mph 1015.9mb 63f 64f
1:50pm 4.5ft 8s 6s 7 7 mph 1016mb 63f 64f
12:50pm 4.5ft 8s 6s 4 4 mph 1016.4mb 62f 64f
11:50am 5ft 8s 7s 4 4 mph 1016.7mb 61f 63f
10:50am 5ft 9s 7s 7 7 mph 1017.2mb 60f 61f
9:50am 5.5ft 9s 7s 9 9 mph 1017.2mb 59f 60f
8:50am 6ft 8s 7s 9 11 mph 1017.3mb 59f 60f
7:50am 5.5ft 9s 7s 9 11 mph 1016.7mb 59f 59f
6:50am 5ft 9s 7s 9 11 mph 1016.5mb 59f 59f
5:50am 5.5ft 9s 7s 9 11 mph 1016.3mb 59f 60f
4:50am 4.5ft 9s 6s 9 11 mph 1016.3mb 59f 60f
3:50am 5ft 10s 7s 9 9 mph 1016.4mb 60f 61f
2:50am 5ft 8s 6s 7 9 mph 1016.8mb 60f 61f
1:50am 5ft 8s 6s 9 9 mph 1017mb 60f 62f
12:50am 6ft 9s 6s 9 11 mph 1016.7mb 60f 62f
Fri 09/22 11:50pm 6ft 9s 6s 7 9 mph 1017.3mb 59f 62f
10:50pm 7ft 9s 6s 9 11 mph 1017.5mb 59f 62f
9:50pm 7.5ft 9s 7s 13 16 mph 1017.4mb 59f 62f
8:50pm 8ft 10s 7s 16 18 mph 1017.5mb 58f 62f
7:50pm 8ft 9s 7s 18 20 mph 1017.5mb 58f 61f
6:50pm 8.5ft 10s 8s 13 16 mph 1017.3mb 59f 61f
5:50pm 8ft 10s 8s 9 11 mph 1017.3mb 59f 62f
4:50pm 7.5ft 9s 7s 11 11 mph 1017.1mb 59f 62f
3:50pm 9ft 10s 8s 16 18 mph 1017.1mb 59f 64f
2:50pm 7ft 10s 7s 11 13 mph 1017.3mb 59f 62f
1:50pm 8ft 10s 7s 11 13 mph 1017.6mb 59f 62f
12:50pm 8ft 10s 7s 13 16 mph 1018.2mb 59f 61f
11:50am 8ft 9s 7s 13 16 mph 1018.7mb 59f 60f
10:50am 8ft 9s 7s 18 22 mph 1018.3mb 58f 59f
9:50am 8.5ft 10s 7s 22 27 mph 1018.5mb 58f 58f
8:50am 9ft 9s  -  25 29 mph 1018.5mb 58f 57f
7:50am 8ft 10s 6s 25 29 mph 1018.3mb 58f 56f
6:50am 7.5ft 10s 7s 25 27 mph 1018.2mb 59f 57f
5:50am 8ft 10s 7s 22 27 mph 1017.5mb 59f 58f
4:50am 8ft 10s 7s 22 25 mph 1017.7mb 58f 59f
3:50am 8ft 9s 7s 18 22 mph 1017.9mb 59f 60f
2:50am 7.5ft 9s 6s 16 20 mph 1018.2mb 59f 60f
1:50am 7ft 10s 6s 18 20 mph 1018.5mb 58f 61f
12:50am 7ft 10s 6s 18 20 mph 1018.4mb 58f 62f
Thu 09/21 11:50pm 6.5ft 9s 6s 16 20 mph 1018.5mb 58f 62f
10:50pm 7.5ft 10s 7s 13 16 mph 1018.5mb 58f 62f
9:50pm 6ft 9s 7s 9 11 mph 1018.8mb 58f 60f
8:50pm 5.5ft 10s 6s 9 11 mph 1018.6mb 58f 60f
7:50pm 6ft 9s 7s 16 25 mph 1017.9mb 59f 64f
6:50pm 6ft 8s 6s 13 16 mph 1017.4mb 59f 63f